sensor_id;sensor_type;location;lat;lon;timestamp;temperature;humidity
10133;DHT22;5106;50.926;7.080;2023-06-14T00:00:31;18.20;69.40
10133;DHT22;5106;50.926;7.080;2023-06-14T00:02:57;18.20;69.70
10133;DHT22;5106;50.926;7.080;2023-06-14T00:05:23;18.20;70.30
10133;DHT22;5106;50.926;7.080;2023-06-14T00:07:49;18.10;70.70
10133;DHT22;5106;50.926;7.080;2023-06-14T00:10:19;18.10;71.10
10133;DHT22;5106;50.926;7.080;2023-06-14T00:12:45;18.10;70.50
10133;DHT22;5106;50.926;7.080;2023-06-14T00:15:10;18.00;70.50
10133;DHT22;5106;50.926;7.080;2023-06-14T00:17:36;18.00;70.50
10133;DHT22;5106;50.926;7.080;2023-06-14T00:20:04;17.90;70.60
10133;DHT22;5106;50.926;7.080;2023-06-14T00:22:33;17.90;71.00
10133;DHT22;5106;50.926;7.080;2023-06-14T00:24:59;17.90;71.30
10133;DHT22;5106;50.926;7.080;2023-06-14T00:27:25;17.90;71.50
10133;DHT22;5106;50.926;7.080;2023-06-14T00:29:51;17.90;71.80
10133;DHT22;5106;50.926;7.080;2023-06-14T00:32:18;17.90;72.50
10133;DHT22;5106;50.926;7.080;2023-06-14T00:34:43;17.80;72.30
10133;DHT22;5106;50.926;7.080;2023-06-14T00:37:09;17.80;72.60
10133;DHT22;5106;50.926;7.080;2023-06-14T00:39:35;17.80;72.60
10133;DHT22;5106;50.926;7.080;2023-06-14T00:42:00;17.70;72.30
10133;DHT22;5106;50.926;7.080;2023-06-14T00:44:26;17.70;72.60
10133;DHT22;5106;50.926;7.080;2023-06-14T00:46:52;17.60;72.60
10133;DHT22;5106;50.926;7.080;2023-06-14T00:49:18;17.60;72.20
10133;DHT22;5106;50.926;7.080;2023-06-14T00:51:45;17.50;72.20
10133;DHT22;5106;50.926;7.080;2023-06-14T00:54:11;17.40;72.40
10133;DHT22;5106;50.926;7.080;2023-06-14T00:56:37;17.30;72.60
10133;DHT22;5106;50.926;7.080;2023-06-14T00:59:03;17.30;72.60
10133;DHT22;5106;50.926;7.080;2023-06-14T01:01:30;17.30;72.60
10133;DHT22;5106;50.926;7.080;2023-06-14T01:03:58;17.20;72.50
10133;DHT22;5106;50.926;7.080;2023-06-14T01:06:35;17.20;72.70
10133;DHT22;5106;50.926;7.080;2023-06-14T01:09:22;17.20;72.40
10133;DHT22;5106;50.926;7.080;2023-06-14T01:14:31;17.10;72.40
10133;DHT22;5106;50.926;7.080;2023-06-14T01:16:58;17.10;72.40
10133;DHT22;5106;50.926;7.080;2023-06-14T01:19:26;17.00;72.40
10133;DHT22;5106;50.926;7.080;2023-06-14T01:21:56;17.00;72.50
10133;DHT22;5106;50.926;7.080;2023-06-14T01:24:22;17.00;72.60
10133;DHT22;5106;50.926;7.080;2023-06-14T01:26:54;17.00;72.80
10133;DHT22;5106;50.926;7.080;2023-06-14T01:29:23;17.00;72.70
10133;DHT22;5106;50.926;7.080;2023-06-14T01:31:50;17.00;72.80
10133;DHT22;5106;50.926;7.080;2023-06-14T01:34:16;17.00;73.20
10133;DHT22;5106;50.926;7.080;2023-06-14T01:36:43;16.90;73.20
10133;DHT22;5106;50.926;7.080;2023-06-14T01:39:14;16.90;73.20
10133;DHT22;5106;50.926;7.080;2023-06-14T01:41:41;16.90;73.30
10133;DHT22;5106;50.926;7.080;2023-06-14T01:44:08;16.80;73.10
10133;DHT22;5106;50.926;7.080;2023-06-14T01:46:35;16.80;73.00
10133;DHT22;5106;50.926;7.080;2023-06-14T01:49:01;16.70;73.20
10133;DHT22;5106;50.926;7.080;2023-06-14T01:51:27;16.80;73.60
10133;DHT22;5106;50.926;7.080;2023-06-14T01:53:53;16.80;73.50
10133;DHT22;5106;50.926;7.080;2023-06-14T01:56:19;16.80;73.30
10133;DHT22;5106;50.926;7.080;2023-06-14T01:58:45;16.80;73.30
10133;DHT22;5106;50.926;7.080;2023-06-14T02:01:11;16.80;73.20
10133;DHT22;5106;50.926;7.080;2023-06-14T02:03:38;16.80;73.40
10133;DHT22;5106;50.926;7.080;2023-06-14T02:06:04;16.80;73.60
10133;DHT22;5106;50.926;7.080;2023-06-14T02:08:29;16.80;73.50
10133;DHT22;5106;50.926;7.080;2023-06-14T02:10:55;16.80;73.50
10133;DHT22;5106;50.926;7.080;2023-06-14T02:13:21;16.80;73.30
10133;DHT22;5106;50.926;7.080;2023-06-14T02:15:47;16.90;73.50
10133;DHT22;5106;50.926;7.080;2023-06-14T02:18:16;16.90;73.50
10133;DHT22;5106;50.926;7.080;2023-06-14T02:20:42;16.90;73.80
10133;DHT22;5106;50.926;7.080;2023-06-14T02:23:07;16.80;73.50
10133;DHT22;5106;50.926;7.080;2023-06-14T02:25:33;16.90;73.80
10133;DHT22;5106;50.926;7.080;2023-06-14T02:27:58;16.80;73.60
10133;DHT22;5106;50.926;7.080;2023-06-14T02:30:24;16.80;73.70
10133;DHT22;5106;50.926;7.080;2023-06-14T02:32:50;16.70;73.80
10133;DHT22;5106;50.926;7.080;2023-06-14T02:35:16;16.60;73.70
10133;DHT22;5106;50.926;7.080;2023-06-14T02:37:42;16.60;73.70
10133;DHT22;5106;50.926;7.080;2023-06-14T02:40:08;16.60;73.90
10133;DHT22;5106;50.926;7.080;2023-06-14T02:42:34;16.60;74.20
10133;DHT22;5106;50.926;7.080;2023-06-14T02:45:00;16.50;73.90
10133;DHT22;5106;50.926;7.080;2023-06-14T02:47:27;16.50;73.50
10133;DHT22;5106;50.926;7.080;2023-06-14T02:49:53;16.50;73.60
10133;DHT22;5106;50.926;7.080;2023-06-14T02:52:19;16.50;73.20
10133;DHT22;5106;50.926;7.080;2023-06-14T02:54:45;16.40;73.10
10133;DHT22;5106;50.926;7.080;2023-06-14T02:57:12;16.30;73.40
10133;DHT22;5106;50.926;7.080;2023-06-14T02:59:38;16.30;73.90
10133;DHT22;5106;50.926;7.080;2023-06-14T03:02:04;16.20;73.50
10133;DHT22;5106;50.926;7.080;2023-06-14T03:04:30;16.10;73.80
10133;DHT22;5106;50.926;7.080;2023-06-14T03:07:00;16.00;74.00
10133;DHT22;5106;50.926;7.080;2023-06-14T03:09:28;16.00;74.20
10133;DHT22;5106;50.926;7.080;2023-06-14T03:11:54;16.00;74.40
10133;DHT22;5106;50.926;7.080;2023-06-14T03:14:19;15.90;74.40
10133;DHT22;5106;50.926;7.080;2023-06-14T03:16:46;15.90;74.50
10133;DHT22;5106;50.926;7.080;2023-06-14T03:19:12;15.90;74.50
10133;DHT22;5106;50.926;7.080;2023-06-14T03:21:38;15.80;74.40
10133;DHT22;5106;50.926;7.080;2023-06-14T03:24:09;15.80;74.60
10133;DHT22;5106;50.926;7.080;2023-06-14T03:26:34;15.80;74.60
10133;DHT22;5106;50.926;7.080;2023-06-14T03:29:02;15.70;74.50
10133;DHT22;5106;50.926;7.080;2023-06-14T03:31:29;15.70;74.80
10133;DHT22;5106;50.926;7.080;2023-06-14T03:33:58;15.70;74.90
10133;DHT22;5106;50.926;7.080;2023-06-14T03:36:24;15.60;74.80
10133;DHT22;5106;50.926;7.080;2023-06-14T03:38:50;15.60;74.70
10133;DHT22;5106;50.926;7.080;2023-06-14T03:41:16;15.60;74.70
10133;DHT22;5106;50.926;7.080;2023-06-14T03:43:41;15.50;74.50
10133;DHT22;5106;50.926;7.080;2023-06-14T03:46:07;15.50;74.80
10133;DHT22;5106;50.926;7.080;2023-06-14T03:48:32;15.60;75.10
10133;DHT22;5106;50.926;7.080;2023-06-14T03:50:58;15.60;75.20
10133;DHT22;5106;50.926;7.080;2023-06-14T03:53:24;15.50;75.30
10133;DHT22;5106;50.926;7.080;2023-06-14T03:55:50;15.50;75.20
10133;DHT22;5106;50.926;7.080;2023-06-14T03:58:18;15.50;75.30
10133;DHT22;5106;50.926;7.080;2023-06-14T04:00:43;15.40;75.30
10133;DHT22;5106;50.926;7.080;2023-06-14T04:03:10;15.40;75.50
10133;DHT22;5106;50.926;7.080;2023-06-14T04:05:38;15.40;75.80
10133;DHT22;5106;50.926;7.080;2023-06-14T04:08:08;15.30;76.00
10133;DHT22;5106;50.926;7.080;2023-06-14T04:10:34;15.30;75.90
10133;DHT22;5106;50.926;7.080;2023-06-14T04:13:00;15.40;76.10
10133;DHT22;5106;50.926;7.080;2023-06-14T04:15:26;15.30;76.10
10133;DHT22;5106;50.926;7.080;2023-06-14T04:17:54;15.40;76.20
10133;DHT22;5106;50.926;7.080;2023-06-14T04:20:22;15.30;76.40
10133;DHT22;5106;50.926;7.080;2023-06-14T04:22:50;15.30;76.60
10133;DHT22;5106;50.926;7.080;2023-06-14T04:25:16;15.30;76.60
10133;DHT22;5106;50.926;7.080;2023-06-14T04:27:42;15.30;76.80
10133;DHT22;5106;50.926;7.080;2023-06-14T04:30:08;15.30;76.90
10133;DHT22;5106;50.926;7.080;2023-06-14T04:32:34;15.30;77.00
10133;DHT22;5106;50.926;7.080;2023-06-14T04:35:08;15.40;77.30
10133;DHT22;5106;50.926;7.080;2023-06-14T04:37:34;15.40;77.30
10133;DHT22;5106;50.926;7.080;2023-06-14T04:40:00;15.40;77.10
10133;DHT22;5106;50.926;7.080;2023-06-14T04:42:26;15.40;76.80
10133;DHT22;5106;50.926;7.080;2023-06-14T04:44:56;15.30;76.70
10133;DHT22;5106;50.926;7.080;2023-06-14T04:47:22;15.30;76.60
10133;DHT22;5106;50.926;7.080;2023-06-14T04:49:50;15.30;76.30
10133;DHT22;5106;50.926;7.080;2023-06-14T04:52:18;15.30;76.50
10133;DHT22;5106;50.926;7.080;2023-06-14T04:54:46;15.40;76.80
10133;DHT22;5106;50.926;7.080;2023-06-14T04:57:12;15.40;77.00
10133;DHT22;5106;50.926;7.080;2023-06-14T04:59:43;15.50;76.80
10133;DHT22;5106;50.926;7.080;2023-06-14T05:02:12;15.50;76.60
10133;DHT22;5106;50.926;7.080;2023-06-14T05:04:38;15.50;76.60
10133;DHT22;5106;50.926;7.080;2023-06-14T05:07:07;15.60;76.40
10133;DHT22;5106;50.926;7.080;2023-06-14T05:09:32;15.60;76.50
10133;DHT22;5106;50.926;7.080;2023-06-14T05:11:58;15.60;76.70
10133;DHT22;5106;50.926;7.080;2023-06-14T05:14:25;15.60;76.60
10133;DHT22;5106;50.926;7.080;2023-06-14T05:16:52;15.70;76.40
10133;DHT22;5106;50.926;7.080;2023-06-14T05:19:18;15.70;76.10
10133;DHT22;5106;50.926;7.080;2023-06-14T05:21:47;15.80;75.70
10133;DHT22;5106;50.926;7.080;2023-06-14T05:24:13;15.80;75.60
10133;DHT22;5106;50.926;7.080;2023-06-14T05:26:39;15.90;75.60
10133;DHT22;5106;50.926;7.080;2023-06-14T05:29:05;16.00;75.70
10133;DHT22;5106;50.926;7.080;2023-06-14T05:31:30;16.10;75.50
10133;DHT22;5106;50.926;7.080;2023-06-14T05:33:56;16.20;75.30
10133;DHT22;5106;50.926;7.080;2023-06-14T05:36:22;16.20;75.40
10133;DHT22;5106;50.926;7.080;2023-06-14T05:38:48;16.40;75.60
10133;DHT22;5106;50.926;7.080;2023-06-14T05:41:14;16.40;75.40
10133;DHT22;5106;50.926;7.080;2023-06-14T05:43:39;16.50;75.00
10133;DHT22;5106;50.926;7.080;2023-06-14T05:46:05;16.60;73.70
10133;DHT22;5106;50.926;7.080;2023-06-14T05:48:31;16.70;73.90
10133;DHT22;5106;50.926;7.080;2023-06-14T05:50:57;16.70;72.70
10133;DHT22;5106;50.926;7.080;2023-06-14T06:04:40;17.20;70.10
10133;DHT22;5106;50.926;7.080;2023-06-14T06:07:49;17.30;70.80
10133;DHT22;5106;50.926;7.080;2023-06-14T06:10:15;17.50;68.40
10133;DHT22;5106;50.926;7.080;2023-06-14T06:15:42;17.70;68.30
10133;DHT22;5106;50.926;7.080;2023-06-14T06:18:08;17.90;66.50
10133;DHT22;5106;50.926;7.080;2023-06-14T06:20:34;17.90;66.60
10133;DHT22;5106;50.926;7.080;2023-06-14T06:22:59;18.00;68.00
10133;DHT22;5106;50.926;7.080;2023-06-14T06:25:26;18.10;67.50
10133;DHT22;5106;50.926;7.080;2023-06-14T06:27:55;18.10;66.80
10133;DHT22;5106;50.926;7.080;2023-06-14T06:30:24;18.20;65.50
10133;DHT22;5106;50.926;7.080;2023-06-14T06:32:50;18.30;65.20
10133;DHT22;5106;50.926;7.080;2023-06-14T06:35:42;18.40;64.40
10133;DHT22;5106;50.926;7.080;2023-06-14T06:38:08;18.50;64.40
10133;DHT22;5106;50.926;7.080;2023-06-14T06:40:37;18.60;66.00
10133;DHT22;5106;50.926;7.080;2023-06-14T06:43:03;18.60;66.90
10133;DHT22;5106;50.926;7.080;2023-06-14T06:45:29;18.60;64.80
10133;DHT22;5106;50.926;7.080;2023-06-14T06:47:56;18.70;65.40
10133;DHT22;5106;50.926;7.080;2023-06-14T06:50:21;18.80;65.40
10133;DHT22;5106;50.926;7.080;2023-06-14T06:52:50;18.80;65.00
10133;DHT22;5106;50.926;7.080;2023-06-14T06:55:16;18.90;65.90
10133;DHT22;5106;50.926;7.080;2023-06-14T06:57:42;19.00;64.90
10133;DHT22;5106;50.926;7.080;2023-06-14T07:00:09;19.00;63.60
10133;DHT22;5106;50.926;7.080;2023-06-14T07:02:40;19.10;63.80
10133;DHT22;5106;50.926;7.080;2023-06-14T07:05:15;19.20;67.60
10133;DHT22;5106;50.926;7.080;2023-06-14T07:07:41;19.20;65.80
10133;DHT22;5106;50.926;7.080;2023-06-14T07:10:07;19.30;62.80
10133;DHT22;5106;50.926;7.080;2023-06-14T07:12:34;19.30;62.60
10133;DHT22;5106;50.926;7.080;2023-06-14T07:15:07;19.40;62.60
10133;DHT22;5106;50.926;7.080;2023-06-14T07:17:36;19.50;63.30
10133;DHT22;5106;50.926;7.080;2023-06-14T07:23:15;19.70;60.60
10133;DHT22;5106;50.926;7.080;2023-06-14T07:25:52;19.80;59.50
10133;DHT22;5106;50.926;7.080;2023-06-14T07:28:17;19.90;60.50
10133;DHT22;5106;50.926;7.080;2023-06-14T07:33:29;20.10;57.20
10133;DHT22;5106;50.926;7.080;2023-06-14T07:35:54;20.20;58.80
10133;DHT22;5106;50.926;7.080;2023-06-14T07:38:29;20.30;56.90
10133;DHT22;5106;50.926;7.080;2023-06-14T07:41:07;20.40;54.80
10133;DHT22;5106;50.926;7.080;2023-06-14T07:43:36;20.50;54.80
10133;DHT22;5106;50.926;7.080;2023-06-14T07:46:05;20.50;53.80
10133;DHT22;5106;50.926;7.080;2023-06-14T07:48:30;20.60;54.90
10133;DHT22;5106;50.926;7.080;2023-06-14T07:50:56;20.70;55.10
10133;DHT22;5106;50.926;7.080;2023-06-14T07:53:22;20.80;54.00
10133;DHT22;5106;50.926;7.080;2023-06-14T07:55:51;20.90;54.80
10133;DHT22;5106;50.926;7.080;2023-06-14T07:58:17;20.90;53.30
10133;DHT22;5106;50.926;7.080;2023-06-14T08:00:42;21.00;54.60
10133;DHT22;5106;50.926;7.080;2023-06-14T08:03:08;21.10;51.60
10133;DHT22;5106;50.926;7.080;2023-06-14T08:05:34;21.10;52.60
10133;DHT22;5106;50.926;7.080;2023-06-14T08:08:00;21.20;58.00
10133;DHT22;5106;50.926;7.080;2023-06-14T08:10:27;21.30;54.20
10133;DHT22;5106;50.926;7.080;2023-06-14T08:12:52;21.30;52.60
10133;DHT22;5106;50.926;7.080;2023-06-14T08:15:18;21.40;53.20
10133;DHT22;5106;50.926;7.080;2023-06-14T08:17:44;21.50;51.80
10133;DHT22;5106;50.926;7.080;2023-06-14T08:20:11;21.60;48.40
10133;DHT22;5106;50.926;7.080;2023-06-14T08:22:36;21.70;48.20
10133;DHT22;5106;50.926;7.080;2023-06-14T08:25:03;21.70;49.30
10133;DHT22;5106;50.926;7.080;2023-06-14T08:27:30;21.80;48.80
10133;DHT22;5106;50.926;7.080;2023-06-14T08:29:56;21.80;47.10
10133;DHT22;5106;50.926;7.080;2023-06-14T08:32:22;21.80;46.60
10133;DHT22;5106;50.926;7.080;2023-06-14T08:34:48;21.90;47.10
10133;DHT22;5106;50.926;7.080;2023-06-14T08:37:13;21.90;47.40
10133;DHT22;5106;50.926;7.080;2023-06-14T08:39:39;21.90;47.50
10133;DHT22;5106;50.926;7.080;2023-06-14T08:42:06;22.00;48.80
10133;DHT22;5106;50.926;7.080;2023-06-14T08:44:33;22.00;48.60
10133;DHT22;5106;50.926;7.080;2023-06-14T08:46:59;22.10;48.60
10133;DHT22;5106;50.926;7.080;2023-06-14T08:49:26;22.20;48.70
10133;DHT22;5106;50.926;7.080;2023-06-14T08:51:59;22.30;47.40
10133;DHT22;5106;50.926;7.080;2023-06-14T08:54:27;22.40;48.70
10133;DHT22;5106;50.926;7.080;2023-06-14T08:57:03;22.50;47.90
10133;DHT22;5106;50.926;7.080;2023-06-14T08:59:32;22.60;46.70
10133;DHT22;5106;50.926;7.080;2023-06-14T09:02:05;22.80;47.80
10133;DHT22;5106;50.926;7.080;2023-06-14T09:04:32;22.90;48.30
10133;DHT22;5106;50.926;7.080;2023-06-14T09:06:58;23.00;47.80
10133;DHT22;5106;50.926;7.080;2023-06-14T09:09:27;23.10;49.60
10133;DHT22;5106;50.926;7.080;2023-06-14T09:11:52;23.20;47.40
10133;DHT22;5106;50.926;7.080;2023-06-14T09:14:19;23.20;47.00
10133;DHT22;5106;50.926;7.080;2023-06-14T09:16:48;23.30;46.70
10133;DHT22;5106;50.926;7.080;2023-06-14T09:19:24;23.30;46.10
10133;DHT22;5106;50.926;7.080;2023-06-14T09:21:51;23.40;47.10
10133;DHT22;5106;50.926;7.080;2023-06-14T09:24:18;23.30;45.50
10133;DHT22;5106;50.926;7.080;2023-06-14T09:26:56;23.30;46.40
10133;DHT22;5106;50.926;7.080;2023-06-14T09:29:23;23.50;46.70
10133;DHT22;5106;50.926;7.080;2023-06-14T09:31:52;23.60;47.10
10133;DHT22;5106;50.926;7.080;2023-06-14T09:34:18;23.70;48.00
10133;DHT22;5106;50.926;7.080;2023-06-14T09:36:46;23.80;46.80
10133;DHT22;5106;50.926;7.080;2023-06-14T09:39:19;23.80;47.60
10133;DHT22;5106;50.926;7.080;2023-06-14T09:41:48;24.00;48.50
10133;DHT22;5106;50.926;7.080;2023-06-14T09:44:13;24.10;46.40
10133;DHT22;5106;50.926;7.080;2023-06-14T09:46:39;24.10;48.00
10133;DHT22;5106;50.926;7.080;2023-06-14T09:49:05;24.20;47.20
10133;DHT22;5106;50.926;7.080;2023-06-14T09:51:31;24.30;46.80
10133;DHT22;5106;50.926;7.080;2023-06-14T09:54:02;24.40;46.60
10133;DHT22;5106;50.926;7.080;2023-06-14T09:56:32;24.60;46.70
10133;DHT22;5106;50.926;7.080;2023-06-14T09:58:59;24.70;46.50
10133;DHT22;5106;50.926;7.080;2023-06-14T10:01:31;24.60;44.50
10133;DHT22;5106;50.926;7.080;2023-06-14T10:04:06;24.50;44.50
10133;DHT22;5106;50.926;7.080;2023-06-14T10:06:36;24.40;44.60
10133;DHT22;5106;50.926;7.080;2023-06-14T10:09:04;24.30;44.90
10133;DHT22;5106;50.926;7.080;2023-06-14T10:11:37;24.40;45.80
10133;DHT22;5106;50.926;7.080;2023-06-14T10:14:06;24.60;45.60
10133;DHT22;5106;50.926;7.080;2023-06-14T10:19:13;24.70;44.80
10133;DHT22;5106;50.926;7.080;2023-06-14T10:22:02;24.70;44.50
10133;DHT22;5106;50.926;7.080;2023-06-14T10:24:50;24.70;42.70
10133;DHT22;5106;50.926;7.080;2023-06-14T10:27:19;24.70;42.50
10133;DHT22;5106;50.926;7.080;2023-06-14T10:32:26;24.80;45.20
10133;DHT22;5106;50.926;7.080;2023-06-14T10:35:05;25.00;44.50
10133;DHT22;5106;50.926;7.080;2023-06-14T10:37:38;25.20;45.00
10133;DHT22;5106;50.926;7.080;2023-06-14T10:40:05;25.30;45.00
10133;DHT22;5106;50.926;7.080;2023-06-14T10:42:36;25.50;45.30
10133;DHT22;5106;50.926;7.080;2023-06-14T10:45:02;25.70;45.70
10133;DHT22;5106;50.926;7.080;2023-06-14T10:47:32;25.90;45.50
10133;DHT22;5106;50.926;7.080;2023-06-14T10:50:09;25.90;44.60
10133;DHT22;5106;50.926;7.080;2023-06-14T10:52:41;25.90;45.00
10133;DHT22;5106;50.926;7.080;2023-06-14T10:55:15;25.80;48.30
10133;DHT22;5106;50.926;7.080;2023-06-14T11:00:09;25.30;45.90
10133;DHT22;5106;50.926;7.080;2023-06-14T11:03:13;25.00;46.50
10133;DHT22;5106;50.926;7.080;2023-06-14T11:05:57;25.00;46.80
10133;DHT22;5106;50.926;7.080;2023-06-14T11:11:33;25.40;46.80
10133;DHT22;5106;50.926;7.080;2023-06-14T11:14:06;25.50;46.60
10133;DHT22;5106;50.926;7.080;2023-06-14T11:19:45;25.80;47.70
10133;DHT22;5106;50.926;7.080;2023-06-14T11:22:23;26.10;46.00
10133;DHT22;5106;50.926;7.080;2023-06-14T11:24:49;26.20;45.10
10133;DHT22;5106;50.926;7.080;2023-06-14T11:27:18;26.10;44.90
10133;DHT22;5106;50.926;7.080;2023-06-14T11:29:48;26.00;45.70
10133;DHT22;5106;50.926;7.080;2023-06-14T11:32:38;25.90;45.20
10133;DHT22;5106;50.926;7.080;2023-06-14T11:35:31;25.90;47.50
10133;DHT22;5106;50.926;7.080;2023-06-14T11:38:01;25.90;47.30
10133;DHT22;5106;50.926;7.080;2023-06-14T11:40:27;26.00;45.50
10133;DHT22;5106;50.926;7.080;2023-06-14T11:43:03;26.10;45.10
10133;DHT22;5106;50.926;7.080;2023-06-14T11:45:30;26.00;43.40
10133;DHT22;5106;50.926;7.080;2023-06-14T11:47:57;26.00;44.70
10133;DHT22;5106;50.926;7.080;2023-06-14T11:50:23;25.90;44.60
10133;DHT22;5106;50.926;7.080;2023-06-14T11:53:01;25.70;45.20
10133;DHT22;5106;50.926;7.080;2023-06-14T11:55:50;25.70;44.70
10133;DHT22;5106;50.926;7.080;2023-06-14T11:58:16;25.80;45.10
10133;DHT22;5106;50.926;7.080;2023-06-14T12:00:42;25.90;45.50
10133;DHT22;5106;50.926;7.080;2023-06-14T12:03:08;26.00;46.20
10133;DHT22;5106;50.926;7.080;2023-06-14T12:05:38;26.20;44.90
10133;DHT22;5106;50.926;7.080;2023-06-14T12:08:04;26.20;44.50
10133;DHT22;5106;50.926;7.080;2023-06-14T12:10:40;26.30;45.30
10133;DHT22;5106;50.926;7.080;2023-06-14T12:13:37;26.40;45.20
10133;DHT22;5106;50.926;7.080;2023-06-14T12:16:07;26.50;44.50
10133;DHT22;5106;50.926;7.080;2023-06-14T12:18:38;26.50;44.00
10133;DHT22;5106;50.926;7.080;2023-06-14T12:21:26;26.60;44.50
10133;DHT22;5106;50.926;7.080;2023-06-14T12:23:57;26.50;44.90
10133;DHT22;5106;50.926;7.080;2023-06-14T12:26:28;26.50;44.70
10133;DHT22;5106;50.926;7.080;2023-06-14T12:28:55;26.50;45.70
10133;DHT22;5106;50.926;7.080;2023-06-14T12:31:22;26.50;44.50
10133;DHT22;5106;50.926;7.080;2023-06-14T12:33:51;26.50;45.60
10133;DHT22;5106;50.926;7.080;2023-06-14T12:36:16;26.40;44.40
10133;DHT22;5106;50.926;7.080;2023-06-14T12:38:42;26.40;43.90
10133;DHT22;5106;50.926;7.080;2023-06-14T12:41:10;26.00;44.30
10133;DHT22;5106;50.926;7.080;2023-06-14T12:43:36;25.90;44.40
10133;DHT22;5106;50.926;7.080;2023-06-14T12:46:05;25.90;45.90
10133;DHT22;5106;50.926;7.080;2023-06-14T12:48:31;25.90;45.10
10133;DHT22;5106;50.926;7.080;2023-06-14T12:50:57;25.80;45.40
10133;DHT22;5106;50.926;7.080;2023-06-14T12:53:24;25.70;44.40
10133;DHT22;5106;50.926;7.080;2023-06-14T12:55:49;25.70;45.30
10133;DHT22;5106;50.926;7.080;2023-06-14T12:58:15;25.60;45.20
10133;DHT22;5106;50.926;7.080;2023-06-14T13:00:42;25.70;45.40
10133;DHT22;5106;50.926;7.080;2023-06-14T13:03:09;25.80;44.60
10133;DHT22;5106;50.926;7.080;2023-06-14T13:05:35;25.80;44.50
10133;DHT22;5106;50.926;7.080;2023-06-14T13:08:01;25.80;44.30
10133;DHT22;5106;50.926;7.080;2023-06-14T13:10:26;25.70;43.90
10133;DHT22;5106;50.926;7.080;2023-06-14T13:12:53;25.80;46.20
10133;DHT22;5106;50.926;7.080;2023-06-14T13:15:19;25.70;45.60
10133;DHT22;5106;50.926;7.080;2023-06-14T13:17:45;25.70;46.90
10133;DHT22;5106;50.926;7.080;2023-06-14T13:20:14;25.70;44.40
10133;DHT22;5106;50.926;7.080;2023-06-14T13:23:03;25.70;44.10
10133;DHT22;5106;50.926;7.080;2023-06-14T13:25:31;25.80;44.60
10133;DHT22;5106;50.926;7.080;2023-06-14T13:27:57;25.80;44.60
10133;DHT22;5106;50.926;7.080;2023-06-14T13:30:33;25.80;44.30
10133;DHT22;5106;50.926;7.080;2023-06-14T13:33:19;25.70;43.70
10133;DHT22;5106;50.926;7.080;2023-06-14T13:35:49;25.70;43.20
10133;DHT22;5106;50.926;7.080;2023-06-14T13:38:30;25.70;43.50
10133;DHT22;5106;50.926;7.080;2023-06-14T13:41:08;25.70;44.70
10133;DHT22;5106;50.926;7.080;2023-06-14T13:43:57;25.70;43.60
10133;DHT22;5106;50.926;7.080;2023-06-14T13:46:54;25.70;44.40
10133;DHT22;5106;50.926;7.080;2023-06-14T13:49:21;25.70;43.60
10133;DHT22;5106;50.926;7.080;2023-06-14T13:52:05;25.80;42.80
10133;DHT22;5106;50.926;7.080;2023-06-14T13:54:36;25.90;45.90
10133;DHT22;5106;50.926;7.080;2023-06-14T13:57:05;25.90;43.80
10133;DHT22;5106;50.926;7.080;2023-06-14T13:59:32;26.00;44.40
10133;DHT22;5106;50.926;7.080;2023-06-14T14:01:58;26.00;43.30
10133;DHT22;5106;50.926;7.080;2023-06-14T14:04:23;26.10;43.80
10133;DHT22;5106;50.926;7.080;2023-06-14T14:06:49;26.30;43.10
10133;DHT22;5106;50.926;7.080;2023-06-14T14:09:15;26.50;44.80
10133;DHT22;5106;50.926;7.080;2023-06-14T14:11:40;26.60;42.90
10133;DHT22;5106;50.926;7.080;2023-06-14T14:14:07;26.60;43.20
10133;DHT22;5106;50.926;7.080;2023-06-14T14:16:33;26.60;43.10
10133;DHT22;5106;50.926;7.080;2023-06-14T14:19:00;26.50;42.10
10133;DHT22;5106;50.926;7.080;2023-06-14T14:21:27;26.40;43.50
10133;DHT22;5106;50.926;7.080;2023-06-14T14:23:53;26.40;43.50
10133;DHT22;5106;50.926;7.080;2023-06-14T14:26:22;26.30;42.70
10133;DHT22;5106;50.926;7.080;2023-06-14T14:28:51;26.30;42.80
10133;DHT22;5106;50.926;7.080;2023-06-14T14:31:17;26.20;44.30
10133;DHT22;5106;50.926;7.080;2023-06-14T14:33:43;26.20;43.30
10133;DHT22;5106;50.926;7.080;2023-06-14T14:36:17;26.10;42.50
10133;DHT22;5106;50.926;7.080;2023-06-14T14:38:43;26.00;43.00
10133;DHT22;5106;50.926;7.080;2023-06-14T14:41:12;26.00;44.40
10133;DHT22;5106;50.926;7.080;2023-06-14T14:43:38;26.10;44.10
10133;DHT22;5106;50.926;7.080;2023-06-14T14:46:03;26.10;44.50
10133;DHT22;5106;50.926;7.080;2023-06-14T14:48:29;26.20;45.30
10133;DHT22;5106;50.926;7.080;2023-06-14T14:50:55;26.30;43.50
10133;DHT22;5106;50.926;7.080;2023-06-14T14:53:21;26.30;43.70
10133;DHT22;5106;50.926;7.080;2023-06-14T14:55:46;26.40;42.70
10133;DHT22;5106;50.926;7.080;2023-06-14T14:58:13;26.40;43.50
10133;DHT22;5106;50.926;7.080;2023-06-14T15:00:38;26.40;44.70
10133;DHT22;5106;50.926;7.080;2023-06-14T15:03:07;26.50;43.40
10133;DHT22;5106;50.926;7.080;2023-06-14T15:06:01;26.60;42.90
10133;DHT22;5106;50.926;7.080;2023-06-14T15:08:27;26.80;44.40
10133;DHT22;5106;50.926;7.080;2023-06-14T15:10:52;26.70;42.70
10133;DHT22;5106;50.926;7.080;2023-06-14T15:13:18;26.70;42.90
10133;DHT22;5106;50.926;7.080;2023-06-14T15:15:44;26.60;42.90
10133;DHT22;5106;50.926;7.080;2023-06-14T15:18:10;26.30;42.80
10133;DHT22;5106;50.926;7.080;2023-06-14T15:20:35;26.10;43.60
10133;DHT22;5106;50.926;7.080;2023-06-14T15:23:01;26.10;43.00
10133;DHT22;5106;50.926;7.080;2023-06-14T15:25:27;26.20;42.70
10133;DHT22;5106;50.926;7.080;2023-06-14T15:27:56;26.20;43.60
10133;DHT22;5106;50.926;7.080;2023-06-14T15:30:22;26.20;44.00
10133;DHT22;5106;50.926;7.080;2023-06-14T15:32:57;26.20;42.70
10133;DHT22;5106;50.926;7.080;2023-06-14T15:35:34;26.20;46.00
10133;DHT22;5106;50.926;7.080;2023-06-14T15:38:00;26.20;43.70
10133;DHT22;5106;50.926;7.080;2023-06-14T15:40:29;26.20;43.70
10133;DHT22;5106;50.926;7.080;2023-06-14T15:42:55;26.20;43.40
10133;DHT22;5106;50.926;7.080;2023-06-14T15:45:21;26.00;43.60
10133;DHT22;5106;50.926;7.080;2023-06-14T15:47:50;26.10;43.50
10133;DHT22;5106;50.926;7.080;2023-06-14T15:50:21;26.10;43.90
10133;DHT22;5106;50.926;7.080;2023-06-14T15:52:47;26.10;44.70
10133;DHT22;5106;50.926;7.080;2023-06-14T15:55:12;26.00;44.40
10133;DHT22;5106;50.926;7.080;2023-06-14T15:57:38;25.90;44.40
10133;DHT22;5106;50.926;7.080;2023-06-14T16:00:05;25.70;45.00
10133;DHT22;5106;50.926;7.080;2023-06-14T16:02:30;25.50;45.00
10133;DHT22;5106;50.926;7.080;2023-06-14T16:04:56;25.40;44.00
10133;DHT22;5106;50.926;7.080;2023-06-14T16:07:22;25.30;44.00
10133;DHT22;5106;50.926;7.080;2023-06-14T16:09:49;25.50;44.10
10133;DHT22;5106;50.926;7.080;2023-06-14T16:12:14;25.70;44.40
10133;DHT22;5106;50.926;7.080;2023-06-14T16:14:40;26.00;44.80
10133;DHT22;5106;50.926;7.080;2023-06-14T16:17:06;26.30;43.70
10133;DHT22;5106;50.926;7.080;2023-06-14T16:19:31;26.20;43.00
10133;DHT22;5106;50.926;7.080;2023-06-14T16:21:57;26.30;43.20
10133;DHT22;5106;50.926;7.080;2023-06-14T16:24:23;26.30;43.10
10133;DHT22;5106;50.926;7.080;2023-06-14T16:26:51;26.40;43.50
10133;DHT22;5106;50.926;7.080;2023-06-14T16:29:25;26.40;43.70